sensor_id;sensor_type;location;lat;lon;timestamp;P1;durP1;ratioP1;P2;durP2;ratioP2
16199;SDS011;8207;52.494;4.654;2023-08-07T00:00:38;13.67;;;2.50;;
16199;SDS011;8207;52.494;4.654;2023-08-07T00:03:04;17.08;;;2.40;;
16199;SDS011;8207;52.494;4.654;2023-08-07T00:05:29;12.13;;;2.05;;
16199;SDS011;8207;52.494;4.654;2023-08-07T00:07:55;13.45;;;1.88;;
16199;SDS011;8207;52.494;4.654;2023-08-07T00:10:20;10.88;;;2.17;;
16199;SDS011;8207;52.494;4.654;2023-08-07T00:12:46;13.80;;;2.20;;
16199;SDS011;8207;52.494;4.654;2023-08-07T00:15:11;15.90;;;2.60;;
16199;SDS011;8207;52.494;4.654;2023-08-07T00:17:36;16.92;;;2.65;;
16199;SDS011;8207;52.494;4.654;2023-08-07T00:20:02;9.98;;;1.88;;
16199;SDS011;8207;52.494;4.654;2023-08-07T00:22:27;12.40;;;2.25;;
16199;SDS011;8207;52.494;4.654;2023-08-07T00:24:52;12.55;;;2.15;;
16199;SDS011;8207;52.494;4.654;2023-08-07T00:27:18;11.60;;;2.10;;
16199;SDS011;8207;52.494;4.654;2023-08-07T00:29:43;13.00;;;2.23;;
16199;SDS011;8207;52.494;4.654;2023-08-07T00:32:08;14.60;;;1.95;;
16199;SDS011;8207;52.494;4.654;2023-08-07T00:34:33;11.20;;;2.00;;
16199;SDS011;8207;52.494;4.654;2023-08-07T00:36:59;13.30;;;1.83;;
16199;SDS011;8207;52.494;4.654;2023-08-07T00:39:24;12.35;;;1.85;;
16199;SDS011;8207;52.494;4.654;2023-08-07T00:41:49;8.33;;;1.70;;
16199;SDS011;8207;52.494;4.654;2023-08-07T00:44:14;12.15;;;2.42;;
16199;SDS011;8207;52.494;4.654;2023-08-07T00:46:40;9.60;;;2.10;;
16199;SDS011;8207;52.494;4.654;2023-08-07T00:49:05;13.18;;;2.42;;
16199;SDS011;8207;52.494;4.654;2023-08-07T00:51:32;12.10;;;2.15;;
16199;SDS011;8207;52.494;4.654;2023-08-07T00:53:57;16.58;;;2.60;;
16199;SDS011;8207;52.494;4.654;2023-08-07T00:56:24;13.45;;;2.20;;
16199;SDS011;8207;52.494;4.654;2023-08-07T00:58:49;13.02;;;1.92;;
16199;SDS011;8207;52.494;4.654;2023-08-07T01:01:15;16.85;;;2.35;;
16199;SDS011;8207;52.494;4.654;2023-08-07T01:03:40;9.15;;;1.85;;
16199;SDS011;8207;52.494;4.654;2023-08-07T01:06:05;12.27;;;2.45;;
16199;SDS011;8207;52.494;4.654;2023-08-07T01:08:31;12.90;;;2.05;;
16199;SDS011;8207;52.494;4.654;2023-08-07T01:13:51;15.77;;;2.38;;
16199;SDS011;8207;52.494;4.654;2023-08-07T01:16:24;8.38;;;1.85;;
16199;SDS011;8207;52.494;4.654;2023-08-07T01:18:51;8.75;;;1.65;;
16199;SDS011;8207;52.494;4.654;2023-08-07T01:21:18;10.55;;;1.88;;
16199;SDS011;8207;52.494;4.654;2023-08-07T01:23:44;12.45;;;2.15;;
16199;SDS011;8207;52.494;4.654;2023-08-07T01:26:09;13.60;;;2.10;;
16199;SDS011;8207;52.494;4.654;2023-08-07T01:28:36;10.53;;;1.87;;
16199;SDS011;8207;52.494;4.654;2023-08-07T01:31:03;10.18;;;1.90;;
16199;SDS011;8207;52.494;4.654;2023-08-07T01:33:39;10.90;;;2.00;;
16199;SDS011;8207;52.494;4.654;2023-08-07T01:36:08;11.30;;;2.00;;
16199;SDS011;8207;52.494;4.654;2023-08-07T01:38:33;11.55;;;2.03;;
16199;SDS011;8207;52.494;4.654;2023-08-07T01:41:00;10.90;;;2.20;;
16199;SDS011;8207;52.494;4.654;2023-08-07T01:43:26;15.02;;;2.20;;
16199;SDS011;8207;52.494;4.654;2023-08-07T01:45:51;13.85;;;2.30;;
16199;SDS011;8207;52.494;4.654;2023-08-07T01:48:17;13.33;;;2.43;;
16199;SDS011;8207;52.494;4.654;2023-08-07T01:50:42;12.05;;;2.85;;
16199;SDS011;8207;52.494;4.654;2023-08-07T01:53:07;12.38;;;2.45;;
16199;SDS011;8207;52.494;4.654;2023-08-07T01:55:32;14.18;;;2.60;;
16199;SDS011;8207;52.494;4.654;2023-08-07T01:57:58;8.85;;;2.15;;
16199;SDS011;8207;52.494;4.654;2023-08-07T02:00:23;9.93;;;2.00;;
16199;SDS011;8207;52.494;4.654;2023-08-07T02:02:48;13.32;;;2.20;;
16199;SDS011;8207;52.494;4.654;2023-08-07T02:05:14;8.70;;;1.77;;
16199;SDS011;8207;52.494;4.654;2023-08-07T02:07:39;11.27;;;1.88;;
16199;SDS011;8207;52.494;4.654;2023-08-07T02:10:04;15.95;;;2.45;;
16199;SDS011;8207;52.494;4.654;2023-08-07T02:12:30;10.70;;;2.28;;
16199;SDS011;8207;52.494;4.654;2023-08-07T02:14:57;17.90;;;2.67;;
16199;SDS011;8207;52.494;4.654;2023-08-07T02:17:24;12.57;;;2.33;;
16199;SDS011;8207;52.494;4.654;2023-08-07T02:19:49;7.72;;;2.42;;
16199;SDS011;8207;52.494;4.654;2023-08-07T02:22:17;7.97;;;2.08;;
16199;SDS011;8207;52.494;4.654;2023-08-07T02:24:43;10.75;;;2.10;;
16199;SDS011;8207;52.494;4.654;2023-08-07T02:27:08;14.85;;;3.15;;
16199;SDS011;8207;52.494;4.654;2023-08-07T02:29:33;12.52;;;2.72;;
16199;SDS011;8207;52.494;4.654;2023-08-07T02:32:01;12.75;;;2.70;;
16199;SDS011;8207;52.494;4.654;2023-08-07T02:34:28;15.43;;;2.67;;
16199;SDS011;8207;52.494;4.654;2023-08-07T02:36:53;11.65;;;2.42;;
16199;SDS011;8207;52.494;4.654;2023-08-07T02:39:18;12.93;;;2.10;;
16199;SDS011;8207;52.494;4.654;2023-08-07T02:41:43;10.15;;;1.90;;
16199;SDS011;8207;52.494;4.654;2023-08-07T02:44:08;9.30;;;1.90;;
16199;SDS011;8207;52.494;4.654;2023-08-07T02:46:34;9.82;;;1.88;;
16199;SDS011;8207;52.494;4.654;2023-08-07T02:49:01;8.00;;;1.83;;
16199;SDS011;8207;52.494;4.654;2023-08-07T02:51:28;13.05;;;2.55;;
16199;SDS011;8207;52.494;4.654;2023-08-07T02:53:53;12.55;;;2.45;;
16199;SDS011;8207;52.494;4.654;2023-08-07T02:56:19;11.40;;;2.20;;
16199;SDS011;8207;52.494;4.654;2023-08-07T02:58:44;13.57;;;2.30;;
16199;SDS011;8207;52.494;4.654;2023-08-07T03:01:09;9.57;;;2.08;;
16199;SDS011;8207;52.494;4.654;2023-08-07T03:03:36;8.60;;;2.17;;
16199;SDS011;8207;52.494;4.654;2023-08-07T03:06:01;10.10;;;2.20;;
16199;SDS011;8207;52.494;4.654;2023-08-07T03:08:26;12.20;;;2.50;;
16199;SDS011;8207;52.494;4.654;2023-08-07T03:10:56;17.47;;;2.83;;
16199;SDS011;8207;52.494;4.654;2023-08-07T03:13:24;12.07;;;2.58;;
16199;SDS011;8207;52.494;4.654;2023-08-07T03:16:12;13.93;;;2.17;;
16199;SDS011;8207;52.494;4.654;2023-08-07T03:18:40;13.02;;;2.13;;
16199;SDS011;8207;52.494;4.654;2023-08-07T03:21:05;11.57;;;2.70;;
16199;SDS011;8207;52.494;4.654;2023-08-07T03:23:31;7.60;;;2.17;;
16199;SDS011;8207;52.494;4.654;2023-08-07T03:26:06;11.27;;;2.67;;
16199;SDS011;8207;52.494;4.654;2023-08-07T03:28:32;12.73;;;2.22;;
16199;SDS011;8207;52.494;4.654;2023-08-07T03:30:57;13.60;;;2.33;;
16199;SDS011;8207;52.494;4.654;2023-08-07T03:33:22;10.15;;;2.20;;
16199;SDS011;8207;52.494;4.654;2023-08-07T03:35:47;11.73;;;2.47;;
16199;SDS011;8207;52.494;4.654;2023-08-07T03:38:13;10.57;;;2.10;;
16199;SDS011;8207;52.494;4.654;2023-08-07T03:40:38;8.98;;;2.20;;
16199;SDS011;8207;52.494;4.654;2023-08-07T03:43:03;14.00;;;2.23;;
16199;SDS011;8207;52.494;4.654;2023-08-07T03:45:28;11.93;;;2.50;;
16199;SDS011;8207;52.494;4.654;2023-08-07T03:47:54;10.52;;;2.05;;
16199;SDS011;8207;52.494;4.654;2023-08-07T03:50:19;12.32;;;2.50;;
16199;SDS011;8207;52.494;4.654;2023-08-07T03:52:44;12.07;;;2.65;;
16199;SDS011;8207;52.494;4.654;2023-08-07T03:55:09;14.57;;;2.38;;
16199;SDS011;8207;52.494;4.654;2023-08-07T03:57:34;12.23;;;2.88;;
16199;SDS011;8207;52.494;4.654;2023-08-07T04:00:00;13.70;;;2.83;;
16199;SDS011;8207;52.494;4.654;2023-08-07T04:02:25;13.65;;;2.47;;
16199;SDS011;8207;52.494;4.654;2023-08-07T04:04:50;12.82;;;2.65;;
16199;SDS011;8207;52.494;4.654;2023-08-07T04:07:15;14.40;;;2.88;;
16199;SDS011;8207;52.494;4.654;2023-08-07T04:09:41;14.03;;;2.77;;
16199;SDS011;8207;52.494;4.654;2023-08-07T04:12:06;15.98;;;2.75;;
16199;SDS011;8207;52.494;4.654;2023-08-07T04:14:32;12.45;;;2.47;;
16199;SDS011;8207;52.494;4.654;2023-08-07T04:16:57;14.40;;;2.60;;
16199;SDS011;8207;52.494;4.654;2023-08-07T04:19:22;12.05;;;2.40;;
16199;SDS011;8207;52.494;4.654;2023-08-07T04:21:47;12.95;;;2.80;;
16199;SDS011;8207;52.494;4.654;2023-08-07T04:24:13;14.68;;;2.70;;
16199;SDS011;8207;52.494;4.654;2023-08-07T04:26:38;16.63;;;2.73;;
16199;SDS011;8207;52.494;4.654;2023-08-07T04:29:03;17.10;;;2.70;;
16199;SDS011;8207;52.494;4.654;2023-08-07T04:31:29;12.93;;;2.85;;
16199;SDS011;8207;52.494;4.654;2023-08-07T04:33:56;11.60;;;2.55;;
16199;SDS011;8207;52.494;4.654;2023-08-07T04:36:21;14.32;;;2.70;;
16199;SDS011;8207;52.494;4.654;2023-08-07T04:38:46;14.60;;;2.88;;
16199;SDS011;8207;52.494;4.654;2023-08-07T04:41:12;13.60;;;2.92;;
16199;SDS011;8207;52.494;4.654;2023-08-07T04:43:37;12.47;;;2.90;;
16199;SDS011;8207;52.494;4.654;2023-08-07T04:46:02;14.57;;;3.30;;
16199;SDS011;8207;52.494;4.654;2023-08-07T04:48:27;11.48;;;2.60;;
16199;SDS011;8207;52.494;4.654;2023-08-07T04:50:52;13.53;;;3.00;;
16199;SDS011;8207;52.494;4.654;2023-08-07T04:53:18;18.77;;;3.15;;
16199;SDS011;8207;52.494;4.654;2023-08-07T04:55:43;13.60;;;3.00;;
16199;SDS011;8207;52.494;4.654;2023-08-07T04:58:08;13.85;;;2.78;;
16199;SDS011;8207;52.494;4.654;2023-08-07T05:00:34;11.30;;;2.35;;
16199;SDS011;8207;52.494;4.654;2023-08-07T05:02:59;13.77;;;2.63;;
16199;SDS011;8207;52.494;4.654;2023-08-07T05:05:24;14.70;;;2.60;;
16199;SDS011;8207;52.494;4.654;2023-08-07T05:07:49;13.98;;;3.30;;
16199;SDS011;8207;52.494;4.654;2023-08-07T05:10:15;11.75;;;2.42;;
16199;SDS011;8207;52.494;4.654;2023-08-07T05:12:40;14.82;;;3.00;;
16199;SDS011;8207;52.494;4.654;2023-08-07T05:15:05;10.13;;;2.33;;
16199;SDS011;8207;52.494;4.654;2023-08-07T05:17:31;11.25;;;2.20;;
16199;SDS011;8207;52.494;4.654;2023-08-07T05:19:56;15.75;;;3.03;;
16199;SDS011;8207;52.494;4.654;2023-08-07T05:22:22;10.27;;;2.33;;
16199;SDS011;8207;52.494;4.654;2023-08-07T05:24:47;13.10;;;2.65;;
16199;SDS011;8207;52.494;4.654;2023-08-07T05:27:13;17.90;;;2.90;;
16199;SDS011;8207;52.494;4.654;2023-08-07T05:29:39;13.13;;;2.97;;
16199;SDS011;8207;52.494;4.654;2023-08-07T05:32:10;13.25;;;2.63;;
16199;SDS011;8207;52.494;4.654;2023-08-07T05:34:36;9.50;;;2.60;;
16199;SDS011;8207;52.494;4.654;2023-08-07T05:37:01;9.20;;;2.58;;
16199;SDS011;8207;52.494;4.654;2023-08-07T05:39:26;12.18;;;2.90;;
16199;SDS011;8207;52.494;4.654;2023-08-07T05:41:52;13.23;;;2.70;;
16199;SDS011;8207;52.494;4.654;2023-08-07T05:44:19;15.13;;;3.35;;
16199;SDS011;8207;52.494;4.654;2023-08-07T05:46:44;15.27;;;2.70;;
16199;SDS011;8207;52.494;4.654;2023-08-07T05:49:10;12.68;;;2.60;;
16199;SDS011;8207;52.494;4.654;2023-08-07T05:51:35;12.43;;;2.70;;
16199;SDS011;8207;52.494;4.654;2023-08-07T05:54:00;10.65;;;2.40;;
16199;SDS011;8207;52.494;4.654;2023-08-07T05:56:25;10.70;;;2.40;;
16199;SDS011;8207;52.494;4.654;2023-08-07T05:58:51;10.00;;;2.38;;
16199;SDS011;8207;52.494;4.654;2023-08-07T06:01:16;9.55;;;2.42;;
16199;SDS011;8207;52.494;4.654;2023-08-07T06:03:42;11.48;;;2.45;;
16199;SDS011;8207;52.494;4.654;2023-08-07T06:06:07;15.43;;;3.73;;
16199;SDS011;8207;52.494;4.654;2023-08-07T06:08:33;11.20;;;2.95;;
16199;SDS011;8207;52.494;4.654;2023-08-07T06:10:59;15.20;;;2.80;;
16199;SDS011;8207;52.494;4.654;2023-08-07T06:13:28;10.43;;;2.33;;
16199;SDS011;8207;52.494;4.654;2023-08-07T06:15:53;13.60;;;2.55;;
16199;SDS011;8207;52.494;4.654;2023-08-07T06:18:19;11.50;;;2.83;;
16199;SDS011;8207;52.494;4.654;2023-08-07T06:20:44;19.07;;;3.27;;
16199;SDS011;8207;52.494;4.654;2023-08-07T06:23:09;15.77;;;3.67;;
16199;SDS011;8207;52.494;4.654;2023-08-07T06:25:35;13.30;;;2.83;;
16199;SDS011;8207;52.494;4.654;2023-08-07T06:28:00;14.30;;;2.72;;
16199;SDS011;8207;52.494;4.654;2023-08-07T06:30:25;14.05;;;3.15;;
16199;SDS011;8207;52.494;4.654;2023-08-07T06:32:50;12.65;;;2.45;;
16199;SDS011;8207;52.494;4.654;2023-08-07T06:35:16;18.47;;;2.83;;
16199;SDS011;8207;52.494;4.654;2023-08-07T06:37:41;15.77;;;2.90;;
16199;SDS011;8207;52.494;4.654;2023-08-07T06:40:06;22.13;;;3.10;;
16199;SDS011;8207;52.494;4.654;2023-08-07T06:42:32;11.68;;;3.00;;
16199;SDS011;8207;52.494;4.654;2023-08-07T06:44:57;20.27;;;3.30;;
16199;SDS011;8207;52.494;4.654;2023-08-07T06:47:22;16.67;;;2.67;;
16199;SDS011;8207;52.494;4.654;2023-08-07T06:49:47;15.57;;;2.90;;
16199;SDS011;8207;52.494;4.654;2023-08-07T06:52:12;15.13;;;2.60;;
16199;SDS011;8207;52.494;4.654;2023-08-07T06:54:38;13.57;;;2.50;;
16199;SDS011;8207;52.494;4.654;2023-08-07T06:57:03;10.20;;;2.65;;
16199;SDS011;8207;52.494;4.654;2023-08-07T06:59:28;12.13;;;2.20;;
16199;SDS011;8207;52.494;4.654;2023-08-07T07:01:54;11.23;;;2.27;;
16199;SDS011;8207;52.494;4.654;2023-08-07T07:04:19;10.70;;;2.13;;
16199;SDS011;8207;52.494;4.654;2023-08-07T07:06:44;9.33;;;2.73;;
16199;SDS011;8207;52.494;4.654;2023-08-07T07:09:09;9.73;;;2.72;;
16199;SDS011;8207;52.494;4.654;2023-08-07T07:11:47;11.77;;;2.65;;
16199;SDS011;8207;52.494;4.654;2023-08-07T07:17:01;13.52;;;2.38;;
16199;SDS011;8207;52.494;4.654;2023-08-07T07:19:27;12.40;;;2.40;;
16199;SDS011;8207;52.494;4.654;2023-08-07T07:21:52;12.82;;;2.60;;
16199;SDS011;8207;52.494;4.654;2023-08-07T07:24:18;14.50;;;2.13;;
16199;SDS011;8207;52.494;4.654;2023-08-07T07:26:43;11.05;;;2.17;;
16199;SDS011;8207;52.494;4.654;2023-08-07T07:29:09;7.78;;;2.05;;
16199;SDS011;8207;52.494;4.654;2023-08-07T07:34:04;10.27;;;2.03;;
16199;SDS011;8207;52.494;4.654;2023-08-07T07:36:29;10.98;;;2.33;;
16199;SDS011;8207;52.494;4.654;2023-08-07T07:38:54;13.37;;;2.60;;
16199;SDS011;8207;52.494;4.654;2023-08-07T07:41:21;10.27;;;2.05;;
16199;SDS011;8207;52.494;4.654;2023-08-07T07:43:47;12.18;;;2.13;;
16199;SDS011;8207;52.494;4.654;2023-08-07T07:46:12;14.98;;;2.60;;
16199;SDS011;8207;52.494;4.654;2023-08-07T07:48:37;14.82;;;2.60;;
16199;SDS011;8207;52.494;4.654;2023-08-07T07:51:03;12.80;;;2.47;;
16199;SDS011;8207;52.494;4.654;2023-08-07T07:53:28;11.73;;;2.30;;
16199;SDS011;8207;52.494;4.654;2023-08-07T07:55:54;8.93;;;2.25;;
16199;SDS011;8207;52.494;4.654;2023-08-07T07:58:19;15.32;;;2.40;;
16199;SDS011;8207;52.494;4.654;2023-08-07T08:00:45;14.15;;;2.72;;
16199;SDS011;8207;52.494;4.654;2023-08-07T08:03:10;12.85;;;2.40;;
16199;SDS011;8207;52.494;4.654;2023-08-07T08:05:37;13.00;;;2.28;;
16199;SDS011;8207;52.494;4.654;2023-08-07T08:08:02;13.52;;;2.20;;
16199;SDS011;8207;52.494;4.654;2023-08-07T08:10:28;10.73;;;2.35;;
16199;SDS011;8207;52.494;4.654;2023-08-07T08:12:56;13.80;;;2.35;;
16199;SDS011;8207;52.494;4.654;2023-08-07T08:15:21;8.45;;;2.00;;
16199;SDS011;8207;52.494;4.654;2023-08-07T08:17:47;10.07;;;2.38;;
16199;SDS011;8207;52.494;4.654;2023-08-07T08:20:12;12.25;;;2.53;;
16199;SDS011;8207;52.494;4.654;2023-08-07T08:22:43;13.57;;;2.47;;
16199;SDS011;8207;52.494;4.654;2023-08-07T08:25:08;10.82;;;2.13;;
16199;SDS011;8207;52.494;4.654;2023-08-07T08:27:34;15.00;;;2.30;;
16199;SDS011;8207;52.494;4.654;2023-08-07T08:29:59;9.20;;;2.30;;
16199;SDS011;8207;52.494;4.654;2023-08-07T08:32:25;8.05;;;2.28;;
16199;SDS011;8207;52.494;4.654;2023-08-07T08:34:50;13.47;;;2.77;;
16199;SDS011;8207;52.494;4.654;2023-08-07T08:37:15;10.77;;;2.28;;
16199;SDS011;8207;52.494;4.654;2023-08-07T08:39:40;13.27;;;2.38;;
16199;SDS011;8207;52.494;4.654;2023-08-07T08:42:06;11.20;;;2.13;;
16199;SDS011;8207;52.494;4.654;2023-08-07T08:44:33;11.93;;;2.10;;
16199;SDS011;8207;52.494;4.654;2023-08-07T08:47:00;11.13;;;2.63;;
16199;SDS011;8207;52.494;4.654;2023-08-07T08:49:27;9.68;;;2.22;;
16199;SDS011;8207;52.494;4.654;2023-08-07T08:51:53;13.32;;;2.58;;
16199;SDS011;8207;52.494;4.654;2023-08-07T08:54:18;11.15;;;2.05;;
16199;SDS011;8207;52.494;4.654;2023-08-07T08:56:43;7.50;;;1.93;;
16199;SDS011;8207;52.494;4.654;2023-08-07T08:59:09;8.45;;;1.95;;
16199;SDS011;8207;52.494;4.654;2023-08-07T09:01:34;12.02;;;2.20;;
16199;SDS011;8207;52.494;4.654;2023-08-07T09:03:59;11.77;;;2.22;;
16199;SDS011;8207;52.494;4.654;2023-08-07T09:06:25;9.45;;;2.15;;
16199;SDS011;8207;52.494;4.654;2023-08-07T09:08:52;8.05;;;1.92;;
16199;SDS011;8207;52.494;4.654;2023-08-07T09:11:17;10.90;;;2.00;;
16199;SDS011;8207;52.494;4.654;2023-08-07T09:13:44;7.28;;;1.92;;
16199;SDS011;8207;52.494;4.654;2023-08-07T09:16:10;4.63;;;1.60;;
16199;SDS011;8207;52.494;4.654;2023-08-07T09:18:36;9.20;;;1.90;;
16199;SDS011;8207;52.494;4.654;2023-08-07T09:21:01;12.77;;;2.43;;
16199;SDS011;8207;52.494;4.654;2023-08-07T09:23:26;14.65;;;2.03;;
16199;SDS011;8207;52.494;4.654;2023-08-07T09:26:01;9.65;;;2.20;;
16199;SDS011;8207;52.494;4.654;2023-08-07T09:28:27;6.15;;;1.67;;
16199;SDS011;8207;52.494;4.654;2023-08-07T09:30:53;13.10;;;2.22;;
16199;SDS011;8207;52.494;4.654;2023-08-07T09:33:27;7.68;;;1.98;;
16199;SDS011;8207;52.494;4.654;2023-08-07T09:35:56;8.05;;;2.55;;
16199;SDS011;8207;52.494;4.654;2023-08-07T09:38:22;8.32;;;2.20;;
16199;SDS011;8207;52.494;4.654;2023-08-07T09:40:48;9.05;;;1.75;;
16199;SDS011;8207;52.494;4.654;2023-08-07T09:43:20;13.27;;;2.13;;
16199;SDS011;8207;52.494;4.654;2023-08-07T09:45:45;9.80;;;1.85;;
16199;SDS011;8207;52.494;4.654;2023-08-07T09:48:10;9.23;;;2.10;;
16199;SDS011;8207;52.494;4.654;2023-08-07T09:50:37;7.97;;;2.00;;
16199;SDS011;8207;52.494;4.654;2023-08-07T09:53:02;7.50;;;2.03;;
16199;SDS011;8207;52.494;4.654;2023-08-07T09:55:27;11.90;;;2.45;;
16199;SDS011;8207;52.494;4.654;2023-08-07T09:57:52;11.53;;;2.07;;
16199;SDS011;8207;52.494;4.654;2023-08-07T10:00:18;8.75;;;2.13;;
16199;SDS011;8207;52.494;4.654;2023-08-07T10:02:47;7.55;;;1.98;;
16199;SDS011;8207;52.494;4.654;2023-08-07T10:05:13;12.25;;;2.17;;
16199;SDS011;8207;52.494;4.654;2023-08-07T10:07:39;9.75;;;2.10;;
16199;SDS011;8207;52.494;4.654;2023-08-07T10:10:05;8.15;;;1.98;;
16199;SDS011;8207;52.494;4.654;2023-08-07T10:12:31;9.65;;;2.25;;
16199;SDS011;8207;52.494;4.654;2023-08-07T10:14:57;9.18;;;2.30;;
16199;SDS011;8207;52.494;4.654;2023-08-07T10:17:23;9.02;;;2.10;;
16199;SDS011;8207;52.494;4.654;2023-08-07T10:19:50;10.73;;;1.90;;
16199;SDS011;8207;52.494;4.654;2023-08-07T10:22:15;8.02;;;2.20;;
16199;SDS011;8207;52.494;4.654;2023-08-07T10:24:42;7.80;;;2.17;;
16199;SDS011;8207;52.494;4.654;2023-08-07T10:27:08;11.82;;;1.90;;
16199;SDS011;8207;52.494;4.654;2023-08-07T10:29:34;9.63;;;1.80;;
16199;SDS011;8207;52.494;4.654;2023-08-07T10:32:00;8.50;;;1.70;;
16199;SDS011;8207;52.494;4.654;2023-08-07T10:34:28;6.82;;;1.73;;
16199;SDS011;8207;52.494;4.654;2023-08-07T10:36:53;4.82;;;1.50;;
16199;SDS011;8207;52.494;4.654;2023-08-07T10:39:19;7.80;;;1.43;;
16199;SDS011;8207;52.494;4.654;2023-08-07T10:41:45;6.57;;;1.63;;
16199;SDS011;8207;52.494;4.654;2023-08-07T10:44:23;8.27;;;1.88;;
16199;SDS011;8207;52.494;4.654;2023-08-07T10:46:52;7.15;;;1.58;;
16199;SDS011;8207;52.494;4.654;2023-08-07T10:49:31;8.50;;;1.73;;
16199;SDS011;8207;52.494;4.654;2023-08-07T10:51:57;7.18;;;1.42;;
16199;SDS011;8207;52.494;4.654;2023-08-07T10:54:26;6.95;;;1.67;;
16199;SDS011;8207;52.494;4.654;2023-08-07T10:56:54;6.47;;;1.25;;
16199;SDS011;8207;52.494;4.654;2023-08-07T10:59:19;7.22;;;1.92;;
16199;SDS011;8207;52.494;4.654;2023-08-07T11:01:49;8.00;;;1.40;;
16199;SDS011;8207;52.494;4.654;2023-08-07T11:04:15;6.15;;;1.40;;
16199;SDS011;8207;52.494;4.654;2023-08-07T11:06:41;6.35;;;1.40;;
16199;SDS011;8207;52.494;4.654;2023-08-07T11:09:07;7.28;;;1.70;;
16199;SDS011;8207;52.494;4.654;2023-08-07T11:11:46;9.30;;;1.67;;
16199;SDS011;8207;52.494;4.654;2023-08-07T11:14:12;6.85;;;1.40;;
16199;SDS011;8207;52.494;4.654;2023-08-07T11:16:38;8.38;;;1.73;;
16199;SDS011;8207;52.494;4.654;2023-08-07T11:19:04;5.93;;;1.73;;
16199;SDS011;8207;52.494;4.654;2023-08-07T11:21:32;11.23;;;1.90;;
16199;SDS011;8207;52.494;4.654;2023-08-07T11:23:58;5.35;;;1.45;;
16199;SDS011;8207;52.494;4.654;2023-08-07T11:26:24;10.18;;;1.85;;
16199;SDS011;8207;52.494;4.654;2023-08-07T11:28:51;7.22;;;1.35;;
16199;SDS011;8207;52.494;4.654;2023-08-07T11:31:17;7.30;;;1.55;;
16199;SDS011;8207;52.494;4.654;2023-08-07T11:33:42;6.45;;;1.40;;
16199;SDS011;8207;52.494;4.654;2023-08-07T11:36:11;8.68;;;1.52;;
16199;SDS011;8207;52.494;4.654;2023-08-07T11:38:38;6.38;;;1.40;;
16199;SDS011;8207;52.494;4.654;2023-08-07T11:41:04;5.22;;;1.27;;
16199;SDS011;8207;52.494;4.654;2023-08-07T11:43:31;5.15;;;1.30;;
16199;SDS011;8207;52.494;4.654;2023-08-07T11:46:06;8.10;;;1.52;;
16199;SDS011;8207;52.494;4.654;2023-08-07T11:48:33;7.07;;;1.30;;
16199;SDS011;8207;52.494;4.654;2023-08-07T11:50:59;6.25;;;1.40;;
16199;SDS011;8207;52.494;4.654;2023-08-07T11:53:25;4.35;;;1.20;;
16199;SDS011;8207;52.494;4.654;2023-08-07T11:56:01;4.88;;;1.20;;
16199;SDS011;8207;52.494;4.654;2023-08-07T11:58:27;5.78;;;1.50;;
16199;SDS011;8207;52.494;4.654;2023-08-07T12:00:53;9.95;;;1.42;;
16199;SDS011;8207;52.494;4.654;2023-08-07T12:03:25;4.53;;;1.38;;
16199;SDS011;8207;52.494;4.654;2023-08-07T12:05:52;6.87;;;1.67;;
16199;SDS011;8207;52.494;4.654;2023-08-07T12:08:17;9.68;;;1.52;;
16199;SDS011;8207;52.494;4.654;2023-08-07T12:10:42;7.10;;;1.40;;
16199;SDS011;8207;52.494;4.654;2023-08-07T12:13:08;3.88;;;1.60;;
16199;SDS011;8207;52.494;4.654;2023-08-07T12:15:33;5.20;;;1.58;;
16199;SDS011;8207;52.494;4.654;2023-08-07T12:18:01;6.13;;;1.42;;
16199;SDS011;8207;52.494;4.654;2023-08-07T12:20:27;6.68;;;1.70;;
16199;SDS011;8207;52.494;4.654;2023-08-07T12:22:52;6.15;;;1.33;;
16199;SDS011;8207;52.494;4.654;2023-08-07T12:25:17;3.65;;;1.30;;
16199;SDS011;8207;52.494;4.654;2023-08-07T12:27:42;3.50;;;1.23;;
16199;SDS011;8207;52.494;4.654;2023-08-07T12:30:08;5.53;;;1.40;;
16199;SDS011;8207;52.494;4.654;2023-08-07T12:32:33;4.15;;;1.20;;
16199;SDS011;8207;52.494;4.654;2023-08-07T12:34:58;8.53;;;1.50;;
16199;SDS011;8207;52.494;4.654;2023-08-07T12:37:24;6.30;;;1.55;;
16199;SDS011;8207;52.494;4.654;2023-08-07T12:39:49;8.13;;;1.60;;
16199;SDS011;8207;52.494;4.654;2023-08-07T12:42:14;6.82;;;1.80;;
16199;SDS011;8207;52.494;4.654;2023-08-07T12:44:39;6.77;;;1.77;;
16199;SDS011;8207;52.494;4.654;2023-08-07T12:47:05;6.30;;;1.40;;
16199;SDS011;8207;52.494;4.654;2023-08-07T12:49:30;6.32;;;1.42;;
16199;SDS011;8207;52.494;4.654;2023-08-07T12:51:55;7.63;;;1.40;;
16199;SDS011;8207;52.494;4.654;2023-08-07T12:54:23;5.43;;;1.48;;
16199;SDS011;8207;52.494;4.654;2023-08-07T12:56:48;6.03;;;1.20;;
16199;SDS011;8207;52.494;4.654;2023-08-07T12:59:14;5.30;;;1.38;;
16199;SDS011;8207;52.494;4.654;2023-08-07T13:01:39;7.03;;;1.43;;
16199;SDS011;8207;52.494;4.654;2023-08-07T13:04:05;6.32;;;1.40;;
16199;SDS011;8207;52.494;4.654;2023-08-07T13:06:30;3.97;;;1.33;;
16199;SDS011;8207;52.494;4.654;2023-08-07T13:08:56;6.27;;;1.60;;
16199;SDS011;8207;52.494;4.654;2023-08-07T13:11:21;7.47;;;1.42;;
16199;SDS011;8207;52.494;4.654;2023-08-07T13:13:46;7.15;;;1.40;;
16199;SDS011;8207;52.494;4.654;2023-08-07T13:16:12;7.05;;;1.48;;
16199;SDS011;8207;52.494;4.654;2023-08-07T13:18:37;8.07;;;1.80;;
16199;SDS011;8207;52.494;4.654;2023-08-07T13:21:02;4.70;;;1.30;;
16199;SDS011;8207;52.494;4.654;2023-08-07T13:23:28;8.18;;;1.60;;
16199;SDS011;8207;52.494;4.654;2023-08-07T13:25:53;6.00;;;1.30;;
16199;SDS011;8207;52.494;4.654;2023-08-07T13:28:18;4.03;;;1.13;;
16199;SDS011;8207;52.494;4.654;2023-08-07T13:30:43;6.20;;;1.47;;
16199;SDS011;8207;52.494;4.654;2023-08-07T13:33:09;5.40;;;1.42;;
16199;SDS011;8207;52.494;4.654;2023-08-07T13:35:34;7.80;;;1.75;;
16199;SDS011;8207;52.494;4.654;2023-08-07T13:37:59;6.70;;;1.90;;
16199;SDS011;8207;52.494;4.654;2023-08-07T13:40:25;6.78;;;1.80;;
16199;SDS011;8207;52.494;4.654;2023-08-07T13:42:50;6.05;;;1.42;;
16199;SDS011;8207;52.494;4.654;2023-08-07T13:45:15;7.10;;;1.38;;
16199;SDS011;8207;52.494;4.654;2023-08-07T13:47:40;6.70;;;1.65;;
16199;SDS011;8207;52.494;4.654;2023-08-07T13:50:06;5.63;;;1.70;;
16199;SDS011;8207;52.494;4.654;2023-08-07T13:52:32;5.82;;;1.60;;
16199;SDS011;8207;52.494;4.654;2023-08-07T13:54:58;5.72;;;1.60;;
16199;SDS011;8207;52.494;4.654;2023-08-07T13:57:23;6.63;;;1.70;;
16199;SDS011;8207;52.494;4.654;2023-08-07T13:59:48;8.07;;;1.47;;
16199;SDS011;8207;52.494;4.654;2023-08-07T14:02:13;3.72;;;1.42;;
16199;SDS011;8207;52.494;4.654;2023-08-07T14:04:39;4.88;;;1.35;;
16199;SDS011;8207;52.494;4.654;2023-08-07T14:07:04;4.75;;;1.70;;
16199;SDS011;8207;52.494;4.654;2023-08-07T14:09:29;5.07;;;1.70;;
16199;SDS011;8207;52.494;4.654;2023-08-07T14:11:54;7.30;;;1.80;;
16199;SDS011;8207;52.494;4.654;2023-08-07T14:14:21;5.70;;;2.05;;
16199;SDS011;8207;52.494;4.654;2023-08-07T14:16:47;7.20;;;1.83;;
16199;SDS011;8207;52.494;4.654;2023-08-07T14:19:13;8.43;;;1.80;;
16199;SDS011;8207;52.494;4.654;2023-08-07T14:21:38;6.83;;;1.80;;
16199;SDS011;8207;52.494;4.654;2023-08-07T14:24:04;3.80;;;1.83;;
16199;SDS011;8207;52.494;4.654;2023-08-07T14:26:29;6.88;;;1.92;;
16199;SDS011;8207;52.494;4.654;2023-08-07T14:28:54;4.65;;;1.73;;
16199;SDS011;8207;52.494;4.654;2023-08-07T14:37:29;7.75;;;1.90;;
16199;SDS011;8207;52.494;4.654;2023-08-07T14:39:55;6.80;;;2.00;;
16199;SDS011;8207;52.494;4.654;2023-08-07T14:42:20;4.85;;;1.90;;
16199;SDS011;8207;52.494;4.654;2023-08-07T14:44:45;8.57;;;1.90;;
16199;SDS011;8207;52.494;4.654;2023-08-07T14:50:24;8.15;;;2.10;;
16199;SDS011;8207;52.494;4.654;2023-08-07T14:52:49;8.10;;;2.03;;
16199;SDS011;8207;52.494;4.654;2023-08-07T14:55:17;7.32;;;1.90;;
16199;SDS011;8207;52.494;4.654;2023-08-07T14:57:42;5.43;;;1.80;;
16199;SDS011;8207;52.494;4.654;2023-08-07T15:00:08;8.90;;;1.70;;
16199;SDS011;8207;52.494;4.654;2023-08-07T15:02:34;7.45;;;2.15;;